Time;durP1;ratioP1;P1;durP2;ratioP2;P2;SDS_P1;SDS_P2;PMS_P1;PMS_P2;Temp;Humidity;BMP_temperature;BMP_pressure;BME280_temperature;BME280_humidity;BME280_pressure;Samples;Min_cycle;Max_cycle;Signal;HPM_P1;HPM_P2
2021/03/19 05:56:46;;;;;;;;;;;;;;;1.10;77.40;97504.59;1774832;76;20790;-66
2021/03/19 05:59:19;;;;;;;;;;;;;;;1.14;76.80;97515.69;1802854;77;20436;-66
2021/03/19 06:01:49;;;;;;;;;;;;;;;1.18;78.26;97514.30;1795704;78;32978;-67
2021/03/19 06:04:20;;;;;;;;;;;;;;;1.26;77.25;97516.42;1793360;77;20482;-66
2021/03/19 06:07:01;;;;;;;;;;;;;;;1.31;77.74;97520.52;1791238;78;20482;-64
2021/03/19 06:09:41;;;;;;;;;;;;;;;1.36;77.26;97528.05;1792123;78;22137;-65
2021/03/19 06:12:15;;;;;;;;;;;;;;;1.39;77.21;97530.23;1790238;78;20478;-66
2021/03/19 06:14:49;;;;;;;;;;;;;;;1.44;77.55;97532.27;1797298;78;20327;-72
2021/03/19 06:17:33;;;;;;;;;;;;;;;1.50;77.34;97534.08;1791989;78;20348;-70
2021/03/19 06:20:05;;;;;;;;;;;;;;;1.54;77.37;97541.76;1791430;78;21319;-68
2021/03/19 06:22:43;;;;;;;;;;;;;;;1.59;77.33;97536.79;1791890;78;21876;-65
2021/03/19 06:25:18;;;;;;;;;;;;;;;1.64;77.17;97542.21;1798663;78;20885;-67
2021/03/19 06:27:55;;;;;;;;;;;;;;;1.69;77.08;97543.72;1791440;78;20438;-65
2021/03/19 06:30:36;;;;;;;;;;;;;;;1.71;76.03;97539.16;1789334;78;20573;-67
2021/03/19 06:33:14;;;;;;;;;;;;;;;1.72;75.56;97545.94;1793208;78;20564;-71
2021/03/19 06:35:44;;;;;;;;;;;;;;;1.64;73.01;97546.09;1792402;78;21757;-67
2021/03/19 06:38:28;;;;;;;;;;;;;;;1.55;72.73;97549.34;1794350;78;20562;-69
2021/03/19 06:40:57;;;;;;;;;;;;;;;1.50;73.58;97556.09;1788970;78;20561;-68
2021/03/19 06:43:29;;;;;;;;;;;;;;;1.46;73.86;97551.78;1772001;78;20610;-65
2021/03/19 06:46:12;;;;;;;;;;;;;;;1.43;74.64;97548.80;1812906;77;20959;-65
2021/03/19 06:48:46;;;;;;;;;;;;;;;1.44;73.81;97553.75;1790888;77;21676;-65
2021/03/19 06:51:31;;;;;;;;;;;;;;;1.47;74.21;97555.17;1808444;77;20488;-66
2021/03/19 06:54:02;;;;;;;;;;;;;;;1.47;74.75;97549.99;1814369;77;20287;-71
2021/03/19 06:56:30;;;;;;;;;;;;;;;1.45;73.49;97559.73;1827287;77;20492;-68
2021/03/19 06:58:58;;;;;;;;;;;;;;;1.44;72.78;97552.45;1818851;77;20474;-68
2021/03/19 07:01:38;;;;;;;;;;;;;;;1.46;73.51;97558.25;1817456;77;22104;-67
2021/03/19 07:04:35;;;;;;;;;;;;;;;1.51;73.77;97556.41;1814349;77;21164;-65
2021/03/19 07:07:25;;;;;;;;;;;;;;;1.58;73.83;97559.30;1815782;77;20167;-65
2021/03/19 07:10:16;;;;;;;;;;;;;;;1.66;72.61;97560.16;1743321;80;20463;-68
2021/03/19 07:13:09;;;;;;;;;;;;;;;1.68;72.86;97564.14;1729468;81;20587;-69
2021/03/19 07:15:52;;;;;;;;;;;;;;;1.73;72.92;97563.58;1762893;79;21859;-69
2021/03/19 07:18:58;;;;;;;;;;;;;;;1.78;73.83;97556.02;1758447;80;20795;-69
2021/03/19 07:21:42;;;;;;;;;;;;;;;1.79;73.71;97563.59;1757778;79;20563;-67
2021/03/19 07:24:31;;;;;;;;;;;;;;;1.87;73.59;97560.05;1754604;79;20191;-68
2021/03/19 07:27:09;;;;;;;;;;;;;;;1.96;74.06;97564.04;1760033;79;20599;-69
2021/03/19 07:30:10;;;;;;;;;;;;;;;2.07;72.75;97562.20;1759083;80;21930;-68
2021/03/19 07:32:58;;;;;;;;;;;;;;;2.18;72.51;97563.41;1756982;79;20516;-67
2021/03/19 07:35:41;;;;;;;;;;;;;;;2.27;72.30;97572.11;1754689;79;20321;-65
2021/03/19 07:38:35;;;;;;;;;;;;;;;2.34;71.35;97573.42;1756710;79;20634;-65
2021/03/19 07:41:20;;;;;;;;;;;;;;;2.41;71.20;97573.43;1760206;79;20823;-67
2021/03/19 07:44:12;;;;;;;;;;;;;;;2.47;71.04;97577.83;1763695;80;21886;-69
2021/03/19 07:46:44;;;;;;;;;;;;;;;2.50;71.07;97575.65;1751625;80;20513;-70
2021/03/19 07:49:38;;;;;;;;;;;;;;;2.54;70.71;97573.45;1753116;80;20634;-71
2021/03/19 07:52:22;;;;;;;;;;;;;;;2.62;71.20;97576.66;1749752;80;20476;-68
2021/03/19 07:55:09;;;;;;;;;;;;;;;2.71;70.20;97571.58;1752413;80;20472;-71
2021/03/19 07:57:55;;;;;;;;;;;;;;;2.73;68.73;97573.48;1751000;80;21897;-71
2021/03/19 08:00:34;;;;;;;;;;;;;;;2.71;68.29;97571.58;1708644;80;20657;-71
2021/03/19 08:03:14;;;;;;;;;;;;;;;2.71;69.27;97573.38;1748171;80;20519;-73
2021/03/19 08:05:47;;;;;;;;;;;;;;;2.77;68.90;97575.66;1748050;80;20390;-69
2021/03/19 08:08:33;;;;;;;;;;;;;;;2.85;68.80;97568.48;1747199;81;20775;-71
2021/03/19 08:11:27;;;;;;;;;;;;;;;2.95;68.00;97571.98;1748380;81;21912;-71
2021/03/19 08:14:16;;;;;;;;;;;;;;;3.08;66.51;97573.27;1746370;80;20567;-70
2021/03/19 08:16:55;;;;;;;;;;;;;;;3.13;63.41;97571.66;1751414;80;20570;-68
2021/03/19 08:19:40;;;;;;;;;;;;;;;3.10;63.51;97573.84;1751694;80;20518;-72
2021/03/19 08:22:21;;;;;;;;;;;;;;;3.10;65.01;97569.45;1754359;80;20618;-65
2021/03/19 08:24:56;;;;;;;;;;;;;;;3.23;64.22;97571.25;1758725;80;21884;-71
2021/03/19 08:27:46;;;;;;;;;;;;;;;3.31;59.96;97568.95;1745257;80;20526;-67
2021/03/19 08:30:36;;;;;;;;;;;;;;;3.24;60.83;97571.56;1755682;80;20638;-67
2021/03/19 08:33:14;;;;;;;;;;;;;;;3.17;60.38;97579.06;1746280;80;20598;-68
2021/03/19 08:36:02;;;;;;;;;;;;;;;3.05;59.41;97573.16;1748609;80;20611;-67
2021/03/19 08:38:39;;;;;;;;;;;;;;;3.04;61.20;97579.34;1766019;80;22054;-69
2021/03/19 08:41:27;;;;;;;;;;;;;;;3.02;59.33;97567.59;1768914;80;20594;-72
2021/03/19 08:43:58;;;;;;;;;;;;;;;2.98;60.52;97569.77;1760028;79;20476;-69
2021/03/19 08:46:48;;;;;;;;;;;;;;;3.07;61.39;97576.36;1750135;80;20595;-71
2021/03/19 08:49:26;;;;;;;;;;;;;;;3.18;60.84;97577.53;1743590;80;20551;-69
2021/03/19 08:51:55;;;;;;;;;;;;;;;3.20;58.93;97573.45;1749697;80;20820;-71
2021/03/19 08:54:30;;;;;;;;;;;;;;;3.28;58.23;97570.14;1764933;80;20573;-72
2021/03/19 08:57:11;;;;;;;;;;;;;;;3.36;56.80;97565.23;1760037;80;20578;-67
2021/03/19 08:59:43;;;;;;;;;;;;;;;3.42;57.66;97567.02;1773673;80;20651;-69
2021/03/19 09:02:26;;;;;;;;;;;;;;;3.47;59.27;97562.80;1777944;80;20773;-71
2021/03/19 09:05:02;;;;;;;;;;;;;;;3.49;59.73;97563.90;1734217;79;21872;-67
2021/03/19 09:07:39;;;;;;;;;;;;;;;3.53;58.76;97555.98;1735712;80;20571;-66
2021/03/19 09:10:20;;;;;;;;;;;;;;;3.60;57.93;97555.98;1758484;80;20227;-66
2021/03/19 09:12:58;;;;;;;;;;;;;;;3.69;57.28;97558.63;1754435;80;20516;-69
2021/03/19 09:15:33;;;;;;;;;;;;;;;3.67;57.37;97559.36;1745196;80;20555;-68
2021/03/19 09:18:07;;;;;;;;;;;;;;;3.63;57.27;97560.26;1753463;80;20536;-65
2021/03/19 09:20:59;;;;;;;;;;;;;;;3.72;57.52;97560.33;1752912;80;20276;-68
2021/03/19 09:24:03;;;;;;;;;;;;;;;3.84;54.99;97564.38;1757639;80;20281;-66
2021/03/19 09:26:43;;;;;;;;;;;;;;;3.93;53.22;97559.25;1764401;80;20480;-68
2021/03/19 09:29:18;;;;;;;;;;;;;;;4.00;53.74;97560.52;1762167;80;20717;-69
2021/03/19 09:31:54;;;;;;;;;;;;;;;4.09;53.94;97558.78;1762306;80;21909;-70
2021/03/19 09:34:46;;;;;;;;;;;;;;;4.26;54.15;97560.37;1704309;80;20535;-69
2021/03/19 09:37:38;;;;;;;;;;;;;;;4.39;54.87;97557.71;1761251;79;20492;-69
2021/03/19 09:40:10;;;;;;;;;;;;;;;4.45;52.68;97555.56;1761932;80;20582;-66
2021/03/19 09:42:49;;;;;;;;;;;;;;;4.31;52.88;97556.16;1757809;80;20585;-66
2021/03/19 09:45:27;;;;;;;;;;;;;;;4.19;52.70;97554.41;1757728;80;20902;-67
2021/03/19 09:48:14;;;;;;;;;;;;;;;4.14;54.38;97554.24;1761456;80;20620;-71
2021/03/19 09:50:55;;;;;;;;;;;;;;;4.08;54.44;97552.48;1765400;79;20576;-68
2021/03/19 09:53:26;;;;;;;;;;;;;;;3.99;53.48;97550.61;1760821;79;20479;-69
2021/03/19 09:56:01;;;;;;;;;;;;;;;3.86;53.35;97546.28;1763640;79;20666;-70
2021/03/19 09:58:46;;;;;;;;;;;;;;;3.80;54.58;97548.91;1762372;79;22010;-73
2021/03/19 10:01:30;;;;;;;;;;;;;;;3.74;51.98;97553.14;1749059;79;20496;-69
2021/03/19 10:04:04;;;;;;;;;;;;;;;3.72;52.66;97547.34;1760231;79;20512;-69
2021/03/19 10:06:42;;;;;;;;;;;;;;;3.65;53.73;97550.47;1765041;79;20475;-76
2021/03/19 10:09:13;;;;;;;;;;;;;;;3.62;53.04;97550.86;1757885;79;20492;-72
2021/03/19 10:11:56;;;;;;;;;;;;;;;3.66;53.93;97540.87;1747574;79;21772;-71
2021/03/19 10:14:29;;;;;;;;;;;;;;;3.75;54.52;97539.61;1743974;81;20583;-71
2021/03/19 10:17:12;;;;;;;;;;;;;;;3.91;53.63;97546.95;1744986;80;20239;-73
2021/03/19 10:19:42;;;;;;;;;;;;;;;4.04;53.85;97544.28;1740777;80;20413;-76
2021/03/19 10:22:36;;;;;;;;;;;;;;;4.24;54.84;97544.99;1743217;80;20676;-69
2021/03/19 10:25:22;;;;;;;;;;;;;;;4.38;53.83;97544.91;1750272;80;22078;-72
2021/03/19 10:27:54;;;;;;;;;;;;;;;4.42;53.95;97544.77;1739809;81;20575;-66
2021/03/19 10:30:34;;;;;;;;;;;;;;;4.52;51.47;97540.70;1730590;80;20517;-68
2021/03/19 10:33:15;;;;;;;;;;;;;;;4.53;52.41;97543.60;1740444;80;20642;-63
2021/03/19 10:35:52;;;;;;;;;;;;;;;4.47;53.33;97544.92;1733279;80;20609;-61
2021/03/19 10:38:26;;;;;;;;;;;;;;;4.44;51.73;97543.56;1742272;80;21956;-64
2021/03/19 10:41:03;;;;;;;;;;;;;;;4.39;50.43;97547.80;1745363;80;20589;-64
2021/03/19 10:43:37;;;;;;;;;;;;;;;4.32;50.81;97541.34;1749538;80;20377;-61
2021/03/19 10:46:20;;;;;;;;;;;;;;;4.28;51.56;97538.34;1742502;80;20457;-63
2021/03/19 10:48:51;;;;;;;;;;;;;;;4.26;52.74;97540.86;1741446;80;20624;-65
2021/03/19 10:51:43;;;;;;;;;;;;;;;4.25;53.13;97538.76;1706640;81;21787;-62
2021/03/19 10:54:20;;;;;;;;;;;;;;;4.28;53.23;97530.55;1740575;80;20496;-60
2021/03/19 10:56:55;;;;;;;;;;;;;;;4.35;51.38;97534.91;1742096;81;20488;-60
2021/03/19 10:59:32;;;;;;;;;;;;;;;4.35;49.85;97535.70;1743076;80;20520;-65
2021/03/19 11:02:16;;;;;;;;;;;;;;;4.31;50.88;97538.45;1744710;80;20792;-70
2021/03/19 11:04:58;;;;;;;;;;;;;;;4.27;51.44;97534.66;1738912;79;22311;-67
2021/03/19 11:07:30;;;;;;;;;;;;;;;4.26;51.40;97534.36;1742622;81;20272;-66
2021/03/19 11:10:01;;;;;;;;;;;;;;;4.28;53.36;97531.84;1748734;79;20483;-68
2021/03/19 11:12:37;;;;;;;;;;;;;;;4.38;53.41;97531.90;1754554;80;20313;-69
2021/03/19 11:15:16;;;;;;;;;;;;;;;4.47;53.69;97531.41;1713785;81;20460;-66
2021/03/19 11:17:44;;;;;;;;;;;;;;;4.51;52.93;97524.80;1710778;81;20803;-72
2021/03/19 11:20:20;;;;;;;;;;;;;;;4.61;52.64;97529.53;1750504;80;20399;-70
2021/03/19 11:22:48;;;;;;;;;;;;;;;4.68;52.92;97526.38;1743095;80;20519;-67
2021/03/19 11:25:25;;;;;;;;;;;;;;;4.75;53.68;97521.91;1717358;81;20526;-72
2021/03/19 11:27:53;;;;;;;;;;;;;;;4.77;53.59;97522.98;1716969;82;20604;-69
2021/03/19 11:30:45;;;;;;;;;;;;;;;4.80;54.21;97518.16;1761352;79;21820;-69
2021/03/19 11:33:17;;;;;;;;;;;;;;;4.81;52.45;97524.97;1771367;80;20491;-68
2021/03/19 11:36:05;;;;;;;;;;;;;;;4.79;51.90;97525.67;1764716;79;20396;-69
2021/03/19 11:38:38;;;;;;;;;;;;;;;4.82;51.76;97521.86;1766700;79;20600;-64
2021/03/19 11:41:29;;;;;;;;;;;;;;;4.85;51.30;97524.02;1765736;79;20823;-66
2021/03/19 11:43:59;;;;;;;;;;;;;;;4.89;52.17;97531.71;1773930;80;21829;-64
2021/03/19 11:46:28;;;;;;;;;;;;;;;4.84;51.04;97527.62;1774881;79;20562;-67
2021/03/19 11:48:57;;;;;;;;;;;;;;;4.71;50.54;97528.54;1770887;79;20234;-69
2021/03/19 11:51:36;;;;;;;;;;;;;;;4.56;52.29;97518.94;1752493;80;20586;-66
2021/03/19 11:53:59;;;;;;;;;;;;;;;4.52;52.23;97526.89;1774658;79;20605;-63
2021/03/19 11:56:29;;;;;;;;;;;;;;;4.52;53.49;97523.79;1770923;80;21814;-70
2021/03/19 11:59:00;;;;;;;;;;;;;;;4.55;54.11;97528.55;1772569;80;20419;-63
2021/03/19 12:01:28;;;;;;;;;;;;;;;4.61;53.53;97527.70;1774273;80;20569;-62
2021/03/19 12:03:56;;;;;;;;;;;;;;;4.61;54.19;97532.14;1772858;79;20492;-64
2021/03/19 12:06:27;;;;;;;;;;;;;;;4.65;54.37;97529.39;1775245;79;20717;-65
2021/03/19 12:08:56;;;;;;;;;;;;;;;4.68;53.56;97524.55;1776343;79;22074;-67
2021/03/19 12:11:30;;;;;;;;;;;;;;;4.70;53.54;97533.45;1767578;80;20500;-68
2021/03/19 12:13:59;;;;;;;;;;;;;;;4.73;53.80;97527.83;1770927;79;20629;-65
2021/03/19 12:16:29;;;;;;;;;;;;;;;4.78;53.75;97524.08;1763864;79;20491;-66
2021/03/19 12:18:58;;;;;;;;;;;;;;;4.80;52.60;97527.27;1770333;79;20525;-68
2021/03/19 12:21:26;;;;;;;;;;;;;;;4.77;52.59;97524.28;1747168;80;21921;-75
2021/03/19 12:23:54;;;;;;;;;;;;;;;4.75;52.96;97525.02;1749120;81;20426;-69
2021/03/19 12:26:22;;;;;;;;;;;;;;;4.78;54.13;97528.48;1753852;80;20116;-68
2021/03/19 12:28:50;;;;;;;;;;;;;;;4.82;53.40;97528.37;1714269;81;20492;-67
2021/03/19 12:31:18;;;;;;;;;;;;;;;4.82;53.74;97530.47;1789949;78;20541;-68
2021/03/19 12:33:46;;;;;;;;;;;;;;;4.89;52.91;97525.20;1759967;80;20846;-75
2021/03/19 12:36:15;;;;;;;;;;;;;;;4.94;52.22;97530.55;1753945;80;20505;-70
2021/03/19 12:38:43;;;;;;;;;;;;;;;4.99;52.18;97534.61;1783194;79;20486;-70
2021/03/19 12:41:10;;;;;;;;;;;;;;;5.04;50.70;97530.34;1789625;79;20514;-67
2021/03/19 12:43:42;;;;;;;;;;;;;;;5.03;50.51;97531.88;1781139;79;20617;-66
2021/03/19 12:46:10;;;;;;;;;;;;;;;4.99;51.06;97526.80;1757101;80;22010;-67
2021/03/19 12:48:39;;;;;;;;;;;;;;;5.01;50.99;97525.58;1793824;79;20470;-67
2021/03/19 12:51:06;;;;;;;;;;;;;;;5.06;51.79;97530.13;1762665;80;20239;-66
2021/03/19 12:53:36;;;;;;;;;;;;;;;5.11;50.42;97527.70;1745737;81;20592;-65
2021/03/19 12:56:06;;;;;;;;;;;;;;;5.16;51.17;97522.63;1717675;81;20502;-64
2021/03/19 12:58:34;;;;;;;;;;;;;;;5.24;50.90;97528.88;1765910;79;20760;-66
2021/03/19 13:01:02;;;;;;;;;;;;;;;5.33;50.57;97527.55;1714284;82;20831;-67
2021/03/19 13:03:32;;;;;;;;;;;;;;;5.34;49.05;97529.66;1763488;79;20508;-67
2021/03/19 13:06:01;;;;;;;;;;;;;;;5.21;50.02;97525.89;1749844;80;20413;-67
2021/03/19 13:08:29;;;;;;;;;;;;;;;5.26;50.29;97522.92;1783921;79;20589;-73
2021/03/19 13:10:57;;;;;;;;;;;;;;;5.35;49.90;97522.13;1783972;79;22070;-67
2021/03/19 13:13:25;;;;;;;;;;;;;;;5.39;48.88;97521.50;1775247;80;20544;-67
2021/03/19 13:15:53;;;;;;;;;;;;;;;5.46;48.42;97522.22;1780808;79;20511;-66
2021/03/19 13:18:21;;;;;;;;;;;;;;;5.54;48.37;97522.95;1783876;79;20147;-66
2021/03/19 13:20:50;;;;;;;;;;;;;;;5.58;47.90;97519.67;1776550;80;20584;-68
2021/03/19 13:23:18;;;;;;;;;;;;;;;5.64;47.93;97522.70;1763192;80;22055;-70
2021/03/19 13:25:46;;;;;;;;;;;;;;;5.68;48.70;97521.27;1741958;80;20488;-68
2021/03/19 13:28:17;;;;;;;;;;;;;;;5.75;47.90;97519.38;1740642;81;20241;-68
2021/03/19 13:30:48;;;;;;;;;;;;;;;5.80;47.76;97518.71;1745826;80;20493;-71
2021/03/19 13:33:17;;;;;;;;;;;;;;;5.82;47.55;97520.09;1721097;81;20502;-73
2021/03/19 13:35:50;;;;;;;;;;;;;;;5.85;48.04;97526.66;1779397;80;21772;-68
2021/03/19 13:38:17;;;;;;;;;;;;;;;5.87;48.07;97520.25;1768399;80;20340;-68
2021/03/19 13:40:47;;;;;;;;;;;;;;;5.80;47.57;97522.63;1770849;79;20348;-70
2021/03/19 13:43:16;;;;;;;;;;;;;;;5.63;47.65;97519.81;1751773;80;20501;-69
2021/03/19 13:45:44;;;;;;;;;;;;;;;5.56;49.29;97522.20;1780845;79;20492;-68
2021/03/19 13:48:12;;;;;;;;;;;;;;;5.56;48.68;97515.69;1783755;79;21899;-70
2021/03/19 13:50:40;;;;;;;;;;;;;;;5.51;47.37;97522.86;1785089;79;20277;-67
2021/03/19 13:53:08;;;;;;;;;;;;;;;5.37;47.50;97520.91;1761447;79;20671;-71
2021/03/19 13:55:36;;;;;;;;;;;;;;;5.27;48.30;97523.72;1779569;80;20493;-70
2021/03/19 13:58:04;;;;;;;;;;;;;;;5.31;48.44;97523.59;1776617;79;20631;-72
2021/03/19 14:00:36;;;;;;;;;;;;;;;5.33;46.82;97525.48;1774305;79;21923;-67
2021/03/19 14:03:05;;;;;;;;;;;;;;;5.30;46.54;97527.20;1774559;78;20960;-60
2021/03/19 14:05:33;;;;;;;;;;;;;;;5.18;46.31;97530.24;1775829;78;20489;-62
2021/03/19 14:08:04;;;;;;;;;;;;;;;5.08;46.80;97531.52;1778669;80;20446;-60
2021/03/19 14:10:32;;;;;;;;;;;;;;;5.03;48.07;97533.19;1778925;80;20830;-61
2021/03/19 14:13:01;;;;;;;;;;;;;;;5.02;48.80;97532.89;1778756;80;21945;-60
2021/03/19 14:15:29;;;;;;;;;;;;;;;5.04;49.64;97538.69;1779340;80;20488;-66
2021/03/19 14:17:57;;;;;;;;;;;;;;;5.08;48.17;97532.03;1779866;79;20452;-68
